Accueil
METAR-TAF:

METAR-TAF

Aéroports :

Aéroport de Moscou-Cheremetievo

Moscou-Cheremetievo, Russie

latitude: 55-58N, longitude: 037-25E, altitude: 190 m

Observation

Le bulletin a été fait il y a 35 minutes, à 03:30 UTC
Vent 6 kt de nord, variant entre nord-ouest et nord/nord-est
Température 17°C
Humidité 72%
Pression 1012 hPa
Visibilité 10 km ou plus
pas de nuages en-dessous de 1500 mètres et pas de cumulonimbus.

METAR: UUEE 230330Z 35003MPS 320V030 CAVOK 17/12 Q1012 R24L/CLRD62 NOSIG

Heure: 07:05 (04:05 UTC)

Prévision

Le bulletin a été fait il y a 2 heures et 5 minutes, à 02:00 UTC
Prévision valable du 23 à 03 UTC au 24 à 03 UTC
Vent 8 kt de nord/nord-est
Visibilité 10 km ou plus
Nuages fragmentés à une hauteur de 1500 ft
Evoluant progressivement
du 23 à 07 UTC au 23 à 11 UTC
Vent 10 kt de sud

TAF: UUEE 230200Z 2303/2403 02004MPS 9999 BKN015 TX29/2312Z TN16/2303Z BECMG 2307/2311 17005MPS

Observations et prévisions météorologiques de plus de 4000 aéroports (messages METAR et TAF).

Les stations disponibles sont représentées par des disques jaunes et rouges sur la carte.

Passer la souris dessus pour voir le nom de la station.

Cliquer dessus pour voir les observations et prévisions météorologiques.

Pour changer de carte: cliquez sur les boutons verts avec une croix noire pour zoomer, sur le bouton vert avec un tiret pour effectuer un zoom arrière, ou sur les flèches vertes pour les cartes adjacentes.


METAR-TAF: